sensor_id;sensor_type;location;lat;lon;timestamp;P1;durP1;ratioP1;P2;durP2;ratioP2
77586;SDS011;66744;49.716;17.158;2024-01-30T00:05:46;53.80;;;27.38;;
77586;SDS011;66744;49.716;17.158;2024-01-30T00:08:48;61.40;;;27.10;;
77586;SDS011;66744;49.716;17.158;2024-01-30T00:11:50;54.42;;;27.25;;
77586;SDS011;66744;49.716;17.158;2024-01-30T00:14:52;56.40;;;29.77;;
77586;SDS011;66744;49.716;17.158;2024-01-30T00:17:59;60.47;;;29.65;;
77586;SDS011;66744;49.716;17.158;2024-01-30T00:21:01;51.70;;;27.33;;
77586;SDS011;66744;49.716;17.158;2024-01-30T00:24:13;51.25;;;27.58;;
77586;SDS011;66744;49.716;17.158;2024-01-30T00:27:15;55.15;;;26.15;;
77586;SDS011;66744;49.716;17.158;2024-01-30T00:30:20;49.55;;;28.33;;
77586;SDS011;66744;49.716;17.158;2024-01-30T00:33:26;53.90;;;28.33;;
77586;SDS011;66744;49.716;17.158;2024-01-30T00:36:29;56.10;;;28.83;;
77586;SDS011;66744;49.716;17.158;2024-01-30T00:39:33;56.15;;;28.80;;
77586;SDS011;66744;49.716;17.158;2024-01-30T00:45:36;48.85;;;25.83;;
77586;SDS011;66744;49.716;17.158;2024-01-30T00:48:38;53.53;;;26.40;;
77586;SDS011;66744;49.716;17.158;2024-01-30T00:51:40;50.67;;;25.55;;
77586;SDS011;66744;49.716;17.158;2024-01-30T00:54:41;49.38;;;28.42;;
77586;SDS011;66744;49.716;17.158;2024-01-30T00:57:43;56.85;;;27.73;;
77586;SDS011;66744;49.716;17.158;2024-01-30T01:00:48;53.85;;;30.02;;
77586;SDS011;66744;49.716;17.158;2024-01-30T01:03:49;58.83;;;28.75;;
77586;SDS011;66744;49.716;17.158;2024-01-30T01:06:51;55.80;;;26.35;;
77586;SDS011;66744;49.716;17.158;2024-01-30T01:09:53;54.63;;;27.00;;
77586;SDS011;66744;49.716;17.158;2024-01-30T01:12:54;53.90;;;27.85;;
77586;SDS011;66744;49.716;17.158;2024-01-30T01:15:57;54.30;;;28.50;;
77586;SDS011;66744;49.716;17.158;2024-01-30T01:19:01;60.55;;;26.60;;
77586;SDS011;66744;49.716;17.158;2024-01-30T01:22:04;56.00;;;29.20;;
77586;SDS011;66744;49.716;17.158;2024-01-30T01:25:06;49.30;;;26.25;;
77586;SDS011;66744;49.716;17.158;2024-01-30T01:28:10;58.10;;;28.70;;
77586;SDS011;66744;49.716;17.158;2024-01-30T01:31:11;53.78;;;27.10;;
77586;SDS011;66744;49.716;17.158;2024-01-30T01:34:17;54.95;;;25.23;;
77586;SDS011;66744;49.716;17.158;2024-01-30T01:37:19;49.08;;;26.30;;
77586;SDS011;66744;49.716;17.158;2024-01-30T01:40:24;47.17;;;25.88;;
77586;SDS011;66744;49.716;17.158;2024-01-30T01:43:29;46.40;;;25.30;;
77586;SDS011;66744;49.716;17.158;2024-01-30T01:46:32;55.13;;;25.48;;
77586;SDS011;66744;49.716;17.158;2024-01-30T01:49:40;46.53;;;22.73;;
77586;SDS011;66744;49.716;17.158;2024-01-30T01:52:43;58.15;;;28.75;;
77586;SDS011;66744;49.716;17.158;2024-01-30T01:55:45;46.05;;;23.67;;
77586;SDS011;66744;49.716;17.158;2024-01-30T01:58:48;52.20;;;29.02;;
77586;SDS011;66744;49.716;17.158;2024-01-30T02:06:26;53.25;;;26.00;;
77586;SDS011;66744;49.716;17.158;2024-01-30T02:09:30;46.60;;;24.60;;
77586;SDS011;66744;49.716;17.158;2024-01-30T02:12:34;48.28;;;24.75;;
77586;SDS011;66744;49.716;17.158;2024-01-30T02:15:37;47.03;;;25.80;;
77586;SDS011;66744;49.716;17.158;2024-01-30T02:18:43;53.00;;;24.65;;
77586;SDS011;66744;49.716;17.158;2024-01-30T02:21:49;52.15;;;24.70;;
77586;SDS011;66744;49.716;17.158;2024-01-30T02:24:53;51.45;;;26.35;;
77586;SDS011;66744;49.716;17.158;2024-01-30T02:27:57;51.60;;;24.48;;
77586;SDS011;66744;49.716;17.158;2024-01-30T02:31:05;59.58;;;28.42;;
77586;SDS011;66744;49.716;17.158;2024-01-30T02:34:09;53.65;;;24.73;;
77586;SDS011;66744;49.716;17.158;2024-01-30T02:37:10;54.10;;;24.45;;
77586;SDS011;66744;49.716;17.158;2024-01-30T02:40:13;44.92;;;24.35;;
77586;SDS011;66744;49.716;17.158;2024-01-30T02:43:16;48.08;;;24.52;;
77586;SDS011;66744;49.716;17.158;2024-01-30T02:46:17;53.90;;;26.35;;
77586;SDS011;66744;49.716;17.158;2024-01-30T02:49:19;44.78;;;24.70;;
77586;SDS011;66744;49.716;17.158;2024-01-30T02:52:21;53.08;;;28.35;;
77586;SDS011;66744;49.716;17.158;2024-01-30T02:58:24;48.70;;;27.27;;
77586;SDS011;66744;49.716;17.158;2024-01-30T03:01:27;55.28;;;26.92;;
77586;SDS011;66744;49.716;17.158;2024-01-30T03:04:29;48.75;;;25.13;;
77586;SDS011;66744;49.716;17.158;2024-01-30T03:07:30;46.45;;;24.92;;
77586;SDS011;66744;49.716;17.158;2024-01-30T03:10:34;42.63;;;23.02;;
77586;SDS011;66744;49.716;17.158;2024-01-30T03:13:37;45.97;;;26.08;;
77586;SDS011;66744;49.716;17.158;2024-01-30T03:19:40;48.90;;;23.48;;
77586;SDS011;66744;49.716;17.158;2024-01-30T03:22:41;52.83;;;26.55;;
77586;SDS011;66744;49.716;17.158;2024-01-30T03:25:44;47.42;;;26.90;;
77586;SDS011;66744;49.716;17.158;2024-01-30T03:28:46;47.60;;;24.17;;
77586;SDS011;66744;49.716;17.158;2024-01-30T03:31:50;47.25;;;25.25;;
77586;SDS011;66744;49.716;17.158;2024-01-30T03:34:56;46.20;;;22.90;;
77586;SDS011;66744;49.716;17.158;2024-01-30T03:38:01;45.58;;;21.50;;
77586;SDS011;66744;49.716;17.158;2024-01-30T03:41:07;48.13;;;26.20;;
77586;SDS011;66744;49.716;17.158;2024-01-30T03:44:09;49.65;;;25.52;;
77586;SDS011;66744;49.716;17.158;2024-01-30T03:47:13;48.35;;;26.15;;
77586;SDS011;66744;49.716;17.158;2024-01-30T03:50:14;54.42;;;26.92;;
77586;SDS011;66744;49.716;17.158;2024-01-30T03:56:18;45.08;;;24.08;;
77586;SDS011;66744;49.716;17.158;2024-01-30T03:59:23;48.72;;;24.13;;
77586;SDS011;66744;49.716;17.158;2024-01-30T04:02:24;42.22;;;24.92;;
77586;SDS011;66744;49.716;17.158;2024-01-30T04:05:26;48.58;;;24.02;;
77586;SDS011;66744;49.716;17.158;2024-01-30T04:08:28;44.95;;;26.33;;
77586;SDS011;66744;49.716;17.158;2024-01-30T04:11:35;47.92;;;25.55;;
77586;SDS011;66744;49.716;17.158;2024-01-30T04:14:38;49.47;;;25.02;;
77586;SDS011;66744;49.716;17.158;2024-01-30T04:17:43;47.15;;;23.50;;
77586;SDS011;66744;49.716;17.158;2024-01-30T04:20:50;48.60;;;26.27;;
77586;SDS011;66744;49.716;17.158;2024-01-30T04:23:53;41.58;;;22.73;;
77586;SDS011;66744;49.716;17.158;2024-01-30T04:30:00;51.08;;;25.80;;
77586;SDS011;66744;49.716;17.158;2024-01-30T04:33:03;45.40;;;26.55;;
77586;SDS011;66744;49.716;17.158;2024-01-30T04:36:13;55.50;;;25.35;;
77586;SDS011;66744;49.716;17.158;2024-01-30T04:39:16;46.40;;;25.83;;
77586;SDS011;66744;49.716;17.158;2024-01-30T04:42:19;50.92;;;28.02;;
77586;SDS011;66744;49.716;17.158;2024-01-30T04:45:23;49.80;;;23.98;;
77586;SDS011;66744;49.716;17.158;2024-01-30T04:51:25;44.17;;;25.73;;
77586;SDS011;66744;49.716;17.158;2024-01-30T04:57:28;45.97;;;25.02;;
77586;SDS011;66744;49.716;17.158;2024-01-30T05:00:34;43.45;;;23.88;;
77586;SDS011;66744;49.716;17.158;2024-01-30T05:03:40;49.65;;;26.08;;
77586;SDS011;66744;49.716;17.158;2024-01-30T05:06:41;46.60;;;26.55;;
77586;SDS011;66744;49.716;17.158;2024-01-30T05:09:44;46.45;;;25.52;;
77586;SDS011;66744;49.716;17.158;2024-01-30T05:12:48;50.78;;;24.50;;
77586;SDS011;66744;49.716;17.158;2024-01-30T05:18:52;54.55;;;25.02;;
77586;SDS011;66744;49.716;17.158;2024-01-30T05:21:53;52.80;;;26.85;;
77586;SDS011;66744;49.716;17.158;2024-01-30T05:27:59;47.17;;;24.95;;
77586;SDS011;66744;49.716;17.158;2024-01-30T05:31:00;43.90;;;23.33;;
77586;SDS011;66744;49.716;17.158;2024-01-30T05:34:02;41.38;;;22.92;;
77586;SDS011;66744;49.716;17.158;2024-01-30T05:37:05;48.40;;;24.83;;
77586;SDS011;66744;49.716;17.158;2024-01-30T05:40:09;43.72;;;26.25;;
77586;SDS011;66744;49.716;17.158;2024-01-30T05:43:10;43.92;;;22.63;;
77586;SDS011;66744;49.716;17.158;2024-01-30T05:46:13;42.03;;;24.08;;
77586;SDS011;66744;49.716;17.158;2024-01-30T05:49:15;43.85;;;23.38;;
77586;SDS011;66744;49.716;17.158;2024-01-30T05:52:18;46.40;;;24.70;;
77586;SDS011;66744;49.716;17.158;2024-01-30T05:55:22;47.03;;;24.50;;
77586;SDS011;66744;49.716;17.158;2024-01-30T05:58:30;49.20;;;27.52;;
77586;SDS011;66744;49.716;17.158;2024-01-30T06:01:34;41.60;;;23.13;;
77586;SDS011;66744;49.716;17.158;2024-01-30T06:04:36;52.38;;;24.23;;
77586;SDS011;66744;49.716;17.158;2024-01-30T06:07:38;44.78;;;24.98;;
77586;SDS011;66744;49.716;17.158;2024-01-30T06:10:40;45.20;;;23.38;;
77586;SDS011;66744;49.716;17.158;2024-01-30T06:13:44;50.88;;;25.35;;
77586;SDS011;66744;49.716;17.158;2024-01-30T06:16:48;46.85;;;23.60;;
77586;SDS011;66744;49.716;17.158;2024-01-30T06:19:51;42.08;;;22.35;;
77586;SDS011;66744;49.716;17.158;2024-01-30T06:22:53;41.42;;;24.20;;
77586;SDS011;66744;49.716;17.158;2024-01-30T06:25:58;41.28;;;22.67;;
77586;SDS011;66744;49.716;17.158;2024-01-30T06:29:02;40.13;;;23.58;;
77586;SDS011;66744;49.716;17.158;2024-01-30T06:32:06;47.53;;;23.45;;
77586;SDS011;66744;49.716;17.158;2024-01-30T06:35:10;39.20;;;23.92;;
77586;SDS011;66744;49.716;17.158;2024-01-30T06:41:17;44.08;;;22.30;;
77586;SDS011;66744;49.716;17.158;2024-01-30T06:44:22;42.80;;;22.40;;
77586;SDS011;66744;49.716;17.158;2024-01-30T06:47:24;47.17;;;22.73;;
77586;SDS011;66744;49.716;17.158;2024-01-30T06:50:27;37.85;;;23.05;;
77586;SDS011;66744;49.716;17.158;2024-01-30T06:53:31;42.63;;;23.50;;
77586;SDS011;66744;49.716;17.158;2024-01-30T06:56:33;43.10;;;26.17;;
77586;SDS011;66744;49.716;17.158;2024-01-30T06:59:38;41.55;;;21.98;;
77586;SDS011;66744;49.716;17.158;2024-01-30T07:02:45;43.45;;;23.75;;
77586;SDS011;66744;49.716;17.158;2024-01-30T07:05:48;39.70;;;21.65;;
77586;SDS011;66744;49.716;17.158;2024-01-30T07:08:50;44.85;;;22.25;;
77586;SDS011;66744;49.716;17.158;2024-01-30T07:11:53;45.35;;;21.45;;
77586;SDS011;66744;49.716;17.158;2024-01-30T07:14:55;44.13;;;24.25;;
77586;SDS011;66744;49.716;17.158;2024-01-30T07:17:57;44.60;;;22.48;;
77586;SDS011;66744;49.716;17.158;2024-01-30T07:21:01;44.67;;;23.15;;
77586;SDS011;66744;49.716;17.158;2024-01-30T07:24:06;47.30;;;23.55;;
77586;SDS011;66744;49.716;17.158;2024-01-30T07:27:09;44.60;;;23.08;;
77586;SDS011;66744;49.716;17.158;2024-01-30T07:30:12;43.83;;;24.63;;
77586;SDS011;66744;49.716;17.158;2024-01-30T07:33:13;43.47;;;25.25;;
77586;SDS011;66744;49.716;17.158;2024-01-30T07:36:15;47.10;;;22.60;;
77586;SDS011;66744;49.716;17.158;2024-01-30T07:39:16;49.30;;;23.95;;
77586;SDS011;66744;49.716;17.158;2024-01-30T07:42:19;46.38;;;22.80;;
77586;SDS011;66744;49.716;17.158;2024-01-30T07:45:26;43.47;;;22.70;;
77586;SDS011;66744;49.716;17.158;2024-01-30T07:48:34;45.63;;;24.67;;
77586;SDS011;66744;49.716;17.158;2024-01-30T07:51:39;47.90;;;25.02;;
77586;SDS011;66744;49.716;17.158;2024-01-30T07:54:43;56.33;;;30.23;;
77586;SDS011;66744;49.716;17.158;2024-01-30T07:57:48;236.40;;;110.47;;
77586;SDS011;66744;49.716;17.158;2024-01-30T08:00:50;424.50;;;191.02;;
77586;SDS011;66744;49.716;17.158;2024-01-30T08:03:59;325.00;;;144.73;;
77586;SDS011;66744;49.716;17.158;2024-01-30T08:07:02;248.90;;;112.75;;
77586;SDS011;66744;49.716;17.158;2024-01-30T08:10:03;151.55;;;77.43;;
77586;SDS011;66744;49.716;17.158;2024-01-30T08:13:04;97.60;;;45.00;;
77586;SDS011;66744;49.716;17.158;2024-01-30T08:16:10;58.88;;;31.38;;
77586;SDS011;66744;49.716;17.158;2024-01-30T08:19:13;48.22;;;28.27;;
77586;SDS011;66744;49.716;17.158;2024-01-30T08:22:17;44.10;;;23.58;;
77586;SDS011;66744;49.716;17.158;2024-01-30T08:25:20;40.80;;;23.17;;
77586;SDS011;66744;49.716;17.158;2024-01-30T08:28:22;43.03;;;24.65;;
77586;SDS011;66744;49.716;17.158;2024-01-30T08:31:23;44.83;;;24.70;;
77586;SDS011;66744;49.716;17.158;2024-01-30T08:34:27;46.55;;;23.17;;
77586;SDS011;66744;49.716;17.158;2024-01-30T08:37:30;45.78;;;25.67;;
77586;SDS011;66744;49.716;17.158;2024-01-30T08:40:33;42.05;;;23.85;;
77586;SDS011;66744;49.716;17.158;2024-01-30T08:43:35;37.33;;;21.95;;
77586;SDS011;66744;49.716;17.158;2024-01-30T08:46:39;47.47;;;25.75;;
77586;SDS011;66744;49.716;17.158;2024-01-30T08:49:41;42.85;;;22.90;;
77586;SDS011;66744;49.716;17.158;2024-01-30T08:52:45;43.78;;;23.73;;
77586;SDS011;66744;49.716;17.158;2024-01-30T08:55:47;46.80;;;25.75;;
77586;SDS011;66744;49.716;17.158;2024-01-30T08:58:51;39.58;;;22.60;;
77586;SDS011;66744;49.716;17.158;2024-01-30T09:01:55;45.03;;;22.70;;
77586;SDS011;66744;49.716;17.158;2024-01-30T09:05:03;47.65;;;27.85;;
77586;SDS011;66744;49.716;17.158;2024-01-30T09:08:07;43.33;;;27.13;;
77586;SDS011;66744;49.716;17.158;2024-01-30T09:11:13;44.10;;;24.98;;
77586;SDS011;66744;49.716;17.158;2024-01-30T09:14:16;36.88;;;21.33;;
77586;SDS011;66744;49.716;17.158;2024-01-30T09:17:18;28.75;;;16.45;;
77586;SDS011;66744;49.716;17.158;2024-01-30T09:20:22;24.95;;;16.95;;
77586;SDS011;66744;49.716;17.158;2024-01-30T09:23:27;28.10;;;14.70;;
77586;SDS011;66744;49.716;17.158;2024-01-30T09:26:33;33.05;;;18.08;;
77586;SDS011;66744;49.716;17.158;2024-01-30T09:29:35;29.13;;;17.95;;
77586;SDS011;66744;49.716;17.158;2024-01-30T09:32:39;32.55;;;18.50;;
77586;SDS011;66744;49.716;17.158;2024-01-30T09:35:43;32.55;;;18.40;;
77586;SDS011;66744;49.716;17.158;2024-01-30T09:38:45;29.35;;;16.08;;
77586;SDS011;66744;49.716;17.158;2024-01-30T09:42:00;29.48;;;18.25;;
77586;SDS011;66744;49.716;17.158;2024-01-30T09:45:05;30.95;;;18.58;;
77586;SDS011;66744;49.716;17.158;2024-01-30T09:48:09;32.67;;;19.58;;
77586;SDS011;66744;49.716;17.158;2024-01-30T09:51:14;28.77;;;17.90;;
77586;SDS011;66744;49.716;17.158;2024-01-30T09:54:18;30.33;;;17.50;;
77586;SDS011;66744;49.716;17.158;2024-01-30T09:57:24;36.33;;;18.35;;
77586;SDS011;66744;49.716;17.158;2024-01-30T10:00:28;33.35;;;17.38;;
77586;SDS011;66744;49.716;17.158;2024-01-30T10:03:31;28.30;;;16.48;;
77586;SDS011;66744;49.716;17.158;2024-01-30T10:06:33;30.13;;;16.38;;
77586;SDS011;66744;49.716;17.158;2024-01-30T10:09:37;30.23;;;16.73;;
77586;SDS011;66744;49.716;17.158;2024-01-30T10:12:39;32.22;;;17.40;;
77586;SDS011;66744;49.716;17.158;2024-01-30T10:15:42;30.20;;;19.67;;
77586;SDS011;66744;49.716;17.158;2024-01-30T10:18:44;31.30;;;18.98;;
77586;SDS011;66744;49.716;17.158;2024-01-30T10:21:46;32.67;;;19.25;;
77586;SDS011;66744;49.716;17.158;2024-01-30T10:24:50;33.70;;;19.15;;
77586;SDS011;66744;49.716;17.158;2024-01-30T10:27:55;36.60;;;19.80;;
77586;SDS011;66744;49.716;17.158;2024-01-30T10:31:01;31.63;;;17.20;;
77586;SDS011;66744;49.716;17.158;2024-01-30T10:37:07;36.60;;;19.27;;
77586;SDS011;66744;49.716;17.158;2024-01-30T10:40:19;34.58;;;21.17;;
77586;SDS011;66744;49.716;17.158;2024-01-30T10:43:32;32.20;;;15.75;;
77586;SDS011;66744;49.716;17.158;2024-01-30T10:46:42;27.25;;;16.73;;
77586;SDS011;66744;49.716;17.158;2024-01-30T10:49:47;27.13;;;15.85;;
77586;SDS011;66744;49.716;17.158;2024-01-30T10:52:52;22.63;;;14.13;;
77586;SDS011;66744;49.716;17.158;2024-01-30T10:55:58;24.13;;;14.90;;
77586;SDS011;66744;49.716;17.158;2024-01-30T10:59:01;28.80;;;14.02;;
77586;SDS011;66744;49.716;17.158;2024-01-30T11:02:05;24.30;;;12.82;;
77586;SDS011;66744;49.716;17.158;2024-01-30T11:05:08;23.23;;;14.48;;
77586;SDS011;66744;49.716;17.158;2024-01-30T11:08:14;28.80;;;15.63;;
77586;SDS011;66744;49.716;17.158;2024-01-30T11:11:24;29.38;;;15.80;;
77586;SDS011;66744;49.716;17.158;2024-01-30T11:14:26;28.13;;;16.60;;
77586;SDS011;66744;49.716;17.158;2024-01-30T11:20:51;24.30;;;15.15;;
77586;SDS011;66744;49.716;17.158;2024-01-30T11:23:56;24.50;;;13.85;;
77586;SDS011;66744;49.716;17.158;2024-01-30T11:27:00;21.27;;;12.57;;
77586;SDS011;66744;49.716;17.158;2024-01-30T11:30:04;20.65;;;10.82;;
77586;SDS011;66744;49.716;17.158;2024-01-30T11:33:08;17.10;;;9.45;;
77586;SDS011;66744;49.716;17.158;2024-01-30T11:36:13;22.00;;;10.07;;
77586;SDS011;66744;49.716;17.158;2024-01-30T11:39:20;19.52;;;11.57;;
77586;SDS011;66744;49.716;17.158;2024-01-30T11:42:23;24.75;;;12.38;;
77586;SDS011;66744;49.716;17.158;2024-01-30T11:45:30;19.45;;;11.45;;
77586;SDS011;66744;49.716;17.158;2024-01-30T11:48:33;21.17;;;11.02;;
77586;SDS011;66744;49.716;17.158;2024-01-30T11:54:47;19.08;;;11.68;;
77586;SDS011;66744;49.716;17.158;2024-01-30T11:57:58;21.08;;;11.45;;
77586;SDS011;66744;49.716;17.158;2024-01-30T12:01:02;14.85;;;8.93;;
77586;SDS011;66744;49.716;17.158;2024-01-30T12:04:05;22.60;;;9.82;;
77586;SDS011;66744;49.716;17.158;2024-01-30T12:07:12;17.48;;;10.02;;
77586;SDS011;66744;49.716;17.158;2024-01-30T12:10:16;21.42;;;11.18;;
77586;SDS011;66744;49.716;17.158;2024-01-30T12:13:22;20.88;;;12.13;;
77586;SDS011;66744;49.716;17.158;2024-01-30T12:16:23;19.48;;;11.00;;
77586;SDS011;66744;49.716;17.158;2024-01-30T12:19:27;16.80;;;10.95;;
77586;SDS011;66744;49.716;17.158;2024-01-30T12:22:53;17.00;;;10.25;;
77586;SDS011;66744;49.716;17.158;2024-01-30T12:25:58;19.40;;;9.65;;
77586;SDS011;66744;49.716;17.158;2024-01-30T12:29:03;16.08;;;8.98;;
77586;SDS011;66744;49.716;17.158;2024-01-30T12:32:06;19.20;;;10.52;;
77586;SDS011;66744;49.716;17.158;2024-01-30T12:35:11;17.08;;;9.75;;
77586;SDS011;66744;49.716;17.158;2024-01-30T12:38:14;20.73;;;10.00;;
77586;SDS011;66744;49.716;17.158;2024-01-30T12:41:18;18.27;;;10.52;;
77586;SDS011;66744;49.716;17.158;2024-01-30T12:44:23;17.73;;;10.75;;
77586;SDS011;66744;49.716;17.158;2024-01-30T12:47:28;21.48;;;11.32;;
77586;SDS011;66744;49.716;17.158;2024-01-30T12:50:30;22.45;;;12.02;;
77586;SDS011;66744;49.716;17.158;2024-01-30T12:53:33;17.65;;;11.13;;
77586;SDS011;66744;49.716;17.158;2024-01-30T12:56:36;16.80;;;9.35;;
77586;SDS011;66744;49.716;17.158;2024-01-30T12:59:38;18.92;;;10.18;;
77586;SDS011;66744;49.716;17.158;2024-01-30T13:02:41;21.40;;;12.35;;
77586;SDS011;66744;49.716;17.158;2024-01-30T13:05:48;20.33;;;11.43;;
77586;SDS011;66744;49.716;17.158;2024-01-30T13:08:50;19.20;;;10.85;;
77586;SDS011;66744;49.716;17.158;2024-01-30T13:11:52;19.02;;;11.43;;
77586;SDS011;66744;49.716;17.158;2024-01-30T13:14:56;18.05;;;10.23;;
77586;SDS011;66744;49.716;17.158;2024-01-30T13:17:59;16.17;;;9.77;;
77586;SDS011;66744;49.716;17.158;2024-01-30T13:21:03;16.00;;;10.48;;
77586;SDS011;66744;49.716;17.158;2024-01-30T13:24:05;14.23;;;9.45;;
77586;SDS011;66744;49.716;17.158;2024-01-30T13:27:10;15.95;;;10.68;;
77586;SDS011;66744;49.716;17.158;2024-01-30T13:30:18;19.38;;;9.10;;
77586;SDS011;66744;49.716;17.158;2024-01-30T13:33:26;15.52;;;8.90;;
77586;SDS011;66744;49.716;17.158;2024-01-30T13:36:30;15.68;;;8.65;;
77586;SDS011;66744;49.716;17.158;2024-01-30T13:39:32;19.15;;;10.73;;
77586;SDS011;66744;49.716;17.158;2024-01-30T13:42:34;16.15;;;10.25;;
77586;SDS011;66744;49.716;17.158;2024-01-30T13:45:40;19.33;;;9.48;;
77586;SDS011;66744;49.716;17.158;2024-01-30T13:48:46;19.20;;;11.32;;
77586;SDS011;66744;49.716;17.158;2024-01-30T13:51:51;17.30;;;9.38;;
77586;SDS011;66744;49.716;17.158;2024-01-30T13:54:54;16.65;;;9.27;;
77586;SDS011;66744;49.716;17.158;2024-01-30T13:57:56;15.88;;;8.27;;
77586;SDS011;66744;49.716;17.158;2024-01-30T14:01:00;13.45;;;8.85;;
77586;SDS011;66744;49.716;17.158;2024-01-30T14:04:04;13.50;;;8.32;;
77586;SDS011;66744;49.716;17.158;2024-01-30T14:07:06;15.85;;;8.52;;
77586;SDS011;66744;49.716;17.158;2024-01-30T14:10:11;18.52;;;8.30;;
77586;SDS011;66744;49.716;17.158;2024-01-30T14:13:14;14.85;;;8.60;;
77586;SDS011;66744;49.716;17.158;2024-01-30T14:16:16;18.02;;;10.38;;
77586;SDS011;66744;49.716;17.158;2024-01-30T14:19:18;18.90;;;8.18;;
77586;SDS011;66744;49.716;17.158;2024-01-30T14:22:22;14.25;;;9.02;;
77586;SDS011;66744;49.716;17.158;2024-01-30T14:25:24;16.33;;;8.90;;
77586;SDS011;66744;49.716;17.158;2024-01-30T14:28:26;13.98;;;8.25;;
77586;SDS011;66744;49.716;17.158;2024-01-30T14:31:28;17.13;;;7.65;;
77586;SDS011;66744;49.716;17.158;2024-01-30T14:34:32;16.60;;;8.88;;
77586;SDS011;66744;49.716;17.158;2024-01-30T14:37:34;20.70;;;9.70;;
77586;SDS011;66744;49.716;17.158;2024-01-30T14:40:38;17.70;;;8.32;;
77586;SDS011;66744;49.716;17.158;2024-01-30T14:43:46;15.07;;;9.05;;
77586;SDS011;66744;49.716;17.158;2024-01-30T14:46:49;14.70;;;7.53;;
77586;SDS011;66744;49.716;17.158;2024-01-30T14:49:50;15.05;;;7.57;;
77586;SDS011;66744;49.716;17.158;2024-01-30T14:52:52;12.45;;;8.55;;
77586;SDS011;66744;49.716;17.158;2024-01-30T14:55:53;16.73;;;8.60;;
77586;SDS011;66744;49.716;17.158;2024-01-30T14:58:55;15.50;;;8.35;;
77586;SDS011;66744;49.716;17.158;2024-01-30T15:01:58;15.60;;;7.55;;
77586;SDS011;66744;49.716;17.158;2024-01-30T15:05:02;13.27;;;8.00;;
77586;SDS011;66744;49.716;17.158;2024-01-30T15:08:05;16.77;;;9.23;;
77586;SDS011;66744;49.716;17.158;2024-01-30T15:11:08;18.88;;;9.45;;
77586;SDS011;66744;49.716;17.158;2024-01-30T15:14:10;14.38;;;7.45;;
77586;SDS011;66744;49.716;17.158;2024-01-30T15:17:17;15.45;;;8.80;;
77586;SDS011;66744;49.716;17.158;2024-01-30T15:20:19;13.32;;;7.93;;
77586;SDS011;66744;49.716;17.158;2024-01-30T15:23:22;13.52;;;8.27;;
77586;SDS011;66744;49.716;17.158;2024-01-30T15:26:26;13.25;;;7.97;;
77586;SDS011;66744;49.716;17.158;2024-01-30T15:29:28;15.65;;;7.78;;
77586;SDS011;66744;49.716;17.158;2024-01-30T15:32:32;16.58;;;8.40;;
77586;SDS011;66744;49.716;17.158;2024-01-30T15:35:34;13.75;;;7.38;;
77586;SDS011;66744;49.716;17.158;2024-01-30T15:38:36;15.27;;;8.65;;
77586;SDS011;66744;49.716;17.158;2024-01-30T15:41:39;13.05;;;8.52;;
77586;SDS011;66744;49.716;17.158;2024-01-30T15:44:41;16.52;;;8.32;;
77586;SDS011;66744;49.716;17.158;2024-01-30T15:47:44;13.85;;;7.50;;
77586;SDS011;66744;49.716;17.158;2024-01-30T15:50:46;16.77;;;8.60;;
77586;SDS011;66744;49.716;17.158;2024-01-30T15:53:50;15.07;;;8.95;;
77586;SDS011;66744;49.716;17.158;2024-01-30T15:56:52;14.45;;;8.43;;
77586;SDS011;66744;49.716;17.158;2024-01-30T15:59:55;12.27;;;6.72;;
77586;SDS011;66744;49.716;17.158;2024-01-30T16:02:58;13.70;;;7.75;;
77586;SDS011;66744;49.716;17.158;2024-01-30T16:06:05;12.43;;;7.25;;
77586;SDS011;66744;49.716;17.158;2024-01-30T16:09:07;14.98;;;8.05;;
77586;SDS011;66744;49.716;17.158;2024-01-30T16:12:11;14.63;;;8.05;;
77586;SDS011;66744;49.716;17.158;2024-01-30T16:15:13;16.05;;;8.23;;
77586;SDS011;66744;49.716;17.158;2024-01-30T16:18:15;15.85;;;8.20;;
77586;SDS011;66744;49.716;17.158;2024-01-30T16:21:16;13.05;;;7.18;;
77586;SDS011;66744;49.716;17.158;2024-01-30T16:24:18;16.02;;;7.72;;
77586;SDS011;66744;49.716;17.158;2024-01-30T16:27:23;15.45;;;8.27;;
77586;SDS011;66744;49.716;17.158;2024-01-30T16:30:25;13.32;;;7.75;;
77586;SDS011;66744;49.716;17.158;2024-01-30T16:33:27;15.32;;;7.13;;
77586;SDS011;66744;49.716;17.158;2024-01-30T16:36:34;14.48;;;8.43;;
77586;SDS011;66744;49.716;17.158;2024-01-30T16:39:36;15.60;;;8.10;;
77586;SDS011;66744;49.716;17.158;2024-01-30T16:42:39;12.88;;;8.00;;
77586;SDS011;66744;49.716;17.158;2024-01-30T16:45:42;12.75;;;8.20;;
77586;SDS011;66744;49.716;17.158;2024-01-30T16:48:47;14.68;;;8.48;;
77586;SDS011;66744;49.716;17.158;2024-01-30T16:51:52;20.70;;;10.80;;
77586;SDS011;66744;49.716;17.158;2024-01-30T16:54:54;20.30;;;12.05;;
77586;SDS011;66744;49.716;17.158;2024-01-30T16:57:56;18.50;;;10.80;;
77586;SDS011;66744;49.716;17.158;2024-01-30T17:00:59;16.95;;;10.30;;
77586;SDS011;66744;49.716;17.158;2024-01-30T17:04:02;15.52;;;9.18;;
77586;SDS011;66744;49.716;17.158;2024-01-30T17:07:07;17.17;;;10.07;;
77586;SDS011;66744;49.716;17.158;2024-01-30T17:10:09;14.32;;;9.23;;
77586;SDS011;66744;49.716;17.158;2024-01-30T17:13:13;13.57;;;8.32;;
77586;SDS011;66744;49.716;17.158;2024-01-30T17:16:15;13.63;;;9.00;;
77586;SDS011;66744;49.716;17.158;2024-01-30T17:19:17;13.93;;;8.25;;
77586;SDS011;66744;49.716;17.158;2024-01-30T17:22:19;14.75;;;9.65;;
77586;SDS011;66744;49.716;17.158;2024-01-30T17:25:22;14.43;;;8.95;;
77586;SDS011;66744;49.716;17.158;2024-01-30T17:28:27;12.80;;;7.72;;
77586;SDS011;66744;49.716;17.158;2024-01-30T17:31:32;15.75;;;8.43;;
77586;SDS011;66744;49.716;17.158;2024-01-30T17:34:36;15.02;;;8.75;;
77586;SDS011;66744;49.716;17.158;2024-01-30T17:37:41;17.45;;;9.25;;
77586;SDS011;66744;49.716;17.158;2024-01-30T17:40:47;16.65;;;10.82;;
77586;SDS011;66744;49.716;17.158;2024-01-30T17:43:51;16.73;;;10.02;;
77586;SDS011;66744;49.716;17.158;2024-01-30T17:46:55;16.85;;;9.77;;
77586;SDS011;66744;49.716;17.158;2024-01-30T17:49:57;17.95;;;11.13;;
77586;SDS011;66744;49.716;17.158;2024-01-30T17:52:59;20.30;;;10.77;;
77586;SDS011;66744;49.716;17.158;2024-01-30T17:56:02;21.13;;;11.98;;
77586;SDS011;66744;49.716;17.158;2024-01-30T17:59:06;24.33;;;12.93;;
77586;SDS011;66744;49.716;17.158;2024-01-30T18:02:08;23.85;;;13.60;;
77586;SDS011;66744;49.716;17.158;2024-01-30T18:05:12;30.98;;;16.58;;
77586;SDS011;66744;49.716;17.158;2024-01-30T18:08:15;31.48;;;16.15;;
77586;SDS011;66744;49.716;17.158;2024-01-30T18:11:18;40.28;;;18.13;;
77586;SDS011;66744;49.716;17.158;2024-01-30T18:14:20;37.05;;;17.48;;
77586;SDS011;66744;49.716;17.158;2024-01-30T18:17:23;32.78;;;15.63;;
77586;SDS011;66744;49.716;17.158;2024-01-30T18:20:27;28.40;;;16.42;;
77586;SDS011;66744;49.716;17.158;2024-01-30T18:23:33;28.48;;;16.65;;
77586;SDS011;66744;49.716;17.158;2024-01-30T18:26:35;28.23;;;16.58;;
77586;SDS011;66744;49.716;17.158;2024-01-30T18:29:38;26.10;;;14.70;;